Arcadia, Michigan
Current Conditions -  °F | °C
As of 8:53 PM on Sunday 21 Dec 2014 (Local Time) from KFKS Reporting Station
Overcast Overcast  
Wind Chill: 25°   Ceiling: 3500
Heat Index: 33°   Visibility: 7mi
Dew Point: 29°   Wind: 10mph
Humidity: 85%   Direction: 150°SSE
Pressure: 30.09"   Gusts: 16mph
Location:  44.49°N, 86.23°W
Report Text: KFKS 220153Z AUTO 15009G14KT 7SM SCT022 OVC035 01/M02 A3009 RMK AO2 T00051017
Loading
Personal Weather Stations






























Interactive Weather Map New forecast layout! Learn more

10-Day Weather Forecast

Advertisements
Track Severe Weather on mobile